Alma, MI

5:26 PM EDT on April 20, 2018 (GMT -0400)
Gratiot Community

Weather History for KAMN - December, 2013

Change the Weather History Date:

Monday, December 9, 2013

  Actual Average Record
Temperature  
Mean Temperature 22 °F -  
Max Temperature 30 °F 35 °F 57 °F (1952)
Min Temperature 14 °F 22 °F -2 °F (1958)
Degree Days  
Heating Degree Days 42    
Moisture  
Dew Point 21 °F    
Average Humidity 86    
Maximum Humidity 99    
Minimum Humidity 63    
Precipitation  
Precipitation 0.00 in - - ()
Sea Level Pressure  
Sea Level Pressure 29.92 in    
Wind  
Wind Speed 9 mph (SW)    
Max Wind Speed 23 mph    
Max Gust Speed 31 mph    
Visibility 6 miles    
Events Snow    
Averages and records for this station are not official NWS values.
T = Trace of Precipitation, MM = Missing Value Source: NWS Daily Summary

Daily Weather History Graph

Daily Weather History Graph

Search for Another Location

Airport or City:

Astronomy

Dec. 09, 2013 Rise Set
Actual Time 7:59 AM EST 5:02 PM EST
Civil Twilight 7:27 AM EST 5:35 PM EST
Nautical Twilight 6:51 AM EST 6:11 PM EST
Astronomical Twilight 6:16 AM EST 6:45 PM EST
Moon 12:42 PM EST (12/9) 12:00 AM EST (12/9)
Length of Visible Light 10h 08m
Length of Day
9h 03m
Waxing Crescent, 51% of the Moon is Illuminated
Dec 9
Waxing Crescent
Dec 17
Full
Dec 25
Last Quarter
Jan 1
New
Jan 7
First Quarter

Hourly Weather History & Observations

Time (EST) Temp. Windchill Dew Point Humidity Pressure Visibility Wind Dir Wind Speed Gust Speed Precip Events Conditions
12:11 AM 24.8 °F 17.9 °F 24.1 °F 97% 29.97 in 0.8 mi East 5.8 mph - N/A Snow Snow
12:31 AM 24.8 °F 17.9 °F 24.3 °F 98% 29.94 in 1.2 mi ENE 5.8 mph - N/A Snow Snow
12:51 AM 24.8 °F 17.9 °F 24.3 °F 98% 29.92 in 2.5 mi ENE 5.8 mph - N/A Snow Light Snow
1:11 AM 25.0 °F 18.1 °F 24.4 °F 98% 29.90 in 3.0 mi ENE 5.8 mph - N/A Snow Light Snow
1:34 AM 25.2 °F 19.5 °F 24.6 °F 98% 29.89 in 3.0 mi East 4.6 mph - N/A Snow Light Snow
1:54 AM 25.2 °F - 24.6 °F 98% 29.88 in 2.5 mi Calm Calm - N/A Snow Light Snow
2:09 AM 25.2 °F - 24.8 °F 99% 29.87 in 3.0 mi Calm Calm - N/A Snow Light Snow
2:31 AM 25.2 °F - 24.6 °F 98% 29.86 in 4.0 mi Calm Calm - N/A Snow Light Snow
2:51 AM 25.3 °F - 24.8 °F 98% 29.87 in 5.0 mi Calm Calm - N/A   Overcast
3:11 AM 25.5 °F - 24.8 °F 97% 29.87 in 7.0 mi Calm Calm - N/A   Overcast
3:32 AM 25.3 °F - 24.8 °F 98% 29.86 in 7.0 mi Calm Calm - N/A   Overcast
3:52 AM 25.5 °F 21.3 °F 24.8 °F 97% 29.86 in 5.0 mi SSW 3.5 mph - N/A   Overcast
4:12 AM 25.7 °F 19.0 °F 25.3 °F 99% 29.85 in 5.0 mi SSW 5.8 mph - N/A   Overcast
4:32 AM 26.1 °F 18.4 °F 25.3 °F 97% 29.83 in 5.0 mi SW 6.9 mph - N/A   Overcast
4:52 AM 26.2 °F 17.8 °F 25.3 °F 96% 29.83 in 7.0 mi SW 8.1 mph - N/A   Overcast
5:12 AM 26.1 °F 19.4 °F 25.2 °F 96% 29.84 in 7.0 mi SW 5.8 mph - N/A   Overcast
5:32 AM 26.1 °F 18.4 °F 25.2 °F 96% 29.83 in 5.0 mi SSW 6.9 mph - N/A   Overcast
5:52 AM 26.1 °F 18.4 °F 25.5 °F 98% 29.83 in 2.5 mi SSW 6.9 mph - N/A   Overcast
6:12 AM 26.2 °F 19.6 °F 25.7 °F 98% 29.83 in 2.0 mi SSW 5.8 mph - N/A   Overcast
6:32 AM 26.6 °F 18.2 °F 26.4 °F 99% 29.82 in 2.0 mi SSW 8.1 mph - N/A Snow Light Snow
6:53 AM 27.1 °F 18.2 °F 27.0 °F 99% 29.83 in 3.0 mi SW 9.2 mph - N/A Snow Light Snow
7:13 AM 28.0 °F 17.5 °F 27.5 °F 98% 29.83 in 3.0 mi SW 12.7 mph - N/A Snow Light Snow
7:33 AM 28.2 °F 19.5 °F 27.5 °F 97% 29.83 in 3.0 mi SW 9.2 mph - N/A   Overcast
7:53 AM 28.4 °F 19.1 °F 27.7 °F 97% 29.84 in 4.0 mi SW 10.4 mph - N/A Snow Light Snow
8:13 AM 28.8 °F 19.5 °F 27.9 °F 96% 29.83 in 4.0 mi SW 10.4 mph - N/A Snow Light Snow
8:33 AM 29.1 °F 20.6 °F 28.0 °F 96% 29.84 in 5.0 mi SW 9.2 mph - N/A Snow Light Snow
8:53 AM 29.3 °F 21.5 °F 28.0 °F 95% 29.84 in 5.0 mi SW 8.1 mph - N/A Snow Light Snow
9:13 AM 29.7 °F 19.6 °F 28.0 °F 94% 29.85 in 5.0 mi SW 12.7 mph 17.3 mph N/A Snow Light Snow
9:33 AM 30.0 °F 21.7 °F 27.9 °F 92% 29.86 in 5.0 mi SW 9.2 mph 17.3 mph N/A Snow Light Snow
9:54 AM 30.0 °F 21.7 °F 27.5 °F 90% 29.87 in 5.0 mi SW 9.2 mph 20.7 mph N/A Snow Light Snow
10:14 AM 30.0 °F 18.7 °F 27.5 °F 90% 29.88 in 5.0 mi SW 16.1 mph 23.0 mph N/A Snow Light Snow
10:34 AM 30.2 °F 19.3 °F 27.5 °F 90% 29.89 in 7.0 mi WSW 15.0 mph 20.7 mph N/A Snow Light Snow
10:54 AM 30.2 °F 19.8 °F 27.9 °F 91% 29.91 in 4.0 mi WSW 13.8 mph - N/A Snow Light Snow
11:09 AM 30.2 °F 21.3 °F 27.7 °F 90% 29.91 in 4.0 mi West 10.4 mph - N/A Snow Light Snow
11:29 AM 29.8 °F 19.3 °F 26.6 °F 88% 29.91 in 5.0 mi West 13.8 mph 24.2 mph N/A Snow Light Snow
11:49 AM 29.3 °F 18.6 °F 26.6 °F 90% 29.89 in 5.0 mi WSW 13.8 mph 18.4 mph N/A Snow Light Snow
12:09 PM 29.7 °F 18.2 °F 25.7 °F 85% 29.89 in 7.0 mi WSW 16.1 mph 21.9 mph N/A   Overcast
12:29 PM 29.1 °F 18.4 °F 25.0 °F 85% 29.88 in 7.0 mi WSW 13.8 mph 21.9 mph N/A Snow Light Snow
12:49 PM 28.6 °F 17.7 °F 24.3 °F 84% 29.89 in 10.0 mi WSW 13.8 mph 20.7 mph N/A   Overcast
1:10 PM 28.0 °F 15.3 °F 22.6 °F 80% 29.89 in 5.0 mi WSW 18.4 mph 31.1 mph N/A Snow Light Snow
1:30 PM 27.5 °F 16.8 °F 21.7 °F 79% 29.90 in 5.0 mi WSW 12.7 mph 24.2 mph N/A Snow Light Snow
1:50 PM 27.1 °F 14.1 °F 21.2 °F 78% 29.91 in 5.0 mi WSW 18.4 mph 23.0 mph N/A Snow Light Snow
2:10 PM 26.6 °F 13.8 °F 22.3 °F 84% 29.92 in 2.0 mi WSW 17.3 mph 23.0 mph N/A Snow Light Snow
2:30 PM 26.6 °F 14.7 °F 22.6 °F 85% 29.92 in 3.0 mi WSW 15.0 mph 31.1 mph N/A Snow Light Snow
2:50 PM 27.0 °F 13.9 °F 21.7 °F 81% 29.92 in 5.0 mi SW 18.4 mph 27.6 mph N/A Snow Light Snow
3:10 PM 26.4 °F 14.0 °F 21.2 °F 81% 29.93 in 3.0 mi WSW 16.1 mph 31.1 mph N/A Snow Light Snow
3:30 PM 25.7 °F 10.8 °F 21.7 °F 85% 29.94 in 2.0 mi WSW 23.0 mph 31.1 mph N/A Snow Light Snow
3:50 PM 25.3 °F 11.8 °F 19.6 °F 79% 29.95 in 4.0 mi WSW 18.4 mph 31.1 mph N/A Snow Light Snow
4:11 PM 24.8 °F 10.3 °F 18.3 °F 76% 29.96 in 7.0 mi WSW 20.7 mph 26.5 mph N/A Snow Light Snow
4:31 PM 24.1 °F 10.6 °F 17.4 °F 76% 29.96 in 10.0 mi SW 17.3 mph 29.9 mph N/A   Mostly Cloudy
4:51 PM 23.5 °F 11.3 °F 17.6 °F 78% 29.98 in 7.0 mi WSW 13.8 mph 26.5 mph N/A   Mostly Cloudy
5:11 PM 23.4 °F 10.6 °F 18.3 °F 81% 29.98 in 7.0 mi WSW 15.0 mph 23.0 mph N/A Snow Light Snow
5:31 PM 23.2 °F 12.0 °F 18.0 °F 80% 29.98 in 7.0 mi SW 11.5 mph 26.5 mph N/A Snow Light Snow
5:51 PM 23.0 °F 11.1 °F 17.6 °F 80% 29.98 in 7.0 mi SW 12.7 mph 21.9 mph N/A Snow Light Snow
6:11 PM 23.2 °F 10.3 °F 17.6 °F 79% 29.98 in 7.0 mi SW 15.0 mph 25.3 mph N/A Snow Light Snow
6:31 PM 23.2 °F 11.4 °F 17.6 °F 79% 29.99 in 7.0 mi WSW 12.7 mph 20.7 mph N/A Snow Light Snow
6:51 PM 23.4 °F 8.1 °F 18.7 °F 82% 29.99 in 3.0 mi WSW 21.9 mph 26.5 mph N/A Snow Light Snow
7:12 PM 22.8 °F 9.9 °F 18.9 °F 85% 29.99 in 4.0 mi WSW 15.0 mph 26.5 mph N/A Snow Light Snow
7:32 PM 22.5 °F 7.6 °F 15.1 °F 73% 29.99 in 10.0 mi WSW 19.6 mph 29.9 mph N/A   Mostly Cloudy
7:52 PM 21.9 °F 7.3 °F 12.2 °F 66% 29.99 in 10.0 mi West 18.4 mph 28.8 mph N/A   Scattered Clouds
8:12 PM 21.4 °F 6.2 °F 11.1 °F 65% 30.00 in 10.0 mi West 19.6 mph 31.1 mph N/A   Clear
8:32 PM 20.8 °F 7.3 °F 11.3 °F 67% 30.01 in 10.0 mi West 15.0 mph 23.0 mph N/A   Scattered Clouds
8:52 PM 19.9 °F 6.2 °F 11.5 °F 70% 30.01 in 10.0 mi West 15.0 mph 24.2 mph N/A   Scattered Clouds
9:12 PM 19.4 °F 2.8 °F 8.8 °F 63% 30.03 in 10.0 mi West 21.9 mph 28.8 mph N/A   Scattered Clouds
9:32 PM 18.9 °F 5.3 °F 8.4 °F 64% 30.04 in 10.0 mi West 13.8 mph 23.0 mph N/A   Mostly Cloudy
9:52 PM 18.5 °F 9.3 °F 9.5 °F 68% 30.05 in 10.0 mi WSW 6.9 mph 20.7 mph N/A   Overcast
10:12 PM 17.6 °F 5.7 °F 9.5 °F 71% 30.05 in 10.0 mi West 10.4 mph 16.1 mph N/A   Overcast
10:33 PM 16.7 °F 1.5 °F 6.3 °F 64% 30.05 in 10.0 mi West 16.1 mph 24.2 mph N/A   Mostly Cloudy
10:53 PM 16.3 °F 0.1 °F 5.9 °F 64% 30.05 in 10.0 mi West 18.4 mph 26.5 mph N/A   Clear
11:13 PM 15.8 °F -0.2 °F 5.9 °F 65% 30.06 in 10.0 mi WSW 17.3 mph 25.3 mph N/A   Scattered Clouds
11:33 PM 15.4 °F 2.3 °F 5.5 °F 65% 30.06 in 10.0 mi WSW 11.5 mph 23.0 mph N/A   Mostly Cloudy
11:53 PM 14.7 °F 0.1 °F 5.5 °F 67% 30.07 in 10.0 mi West 13.8 mph 20.7 mph N/A   Overcast